createdAt,value
2023-05-01T06:21:16.591Z,1009.67
2023-05-01T06:31:16.692Z,1009.62
2023-05-01T06:41:16.652Z,1009.45
2023-05-01T06:51:16.736Z,1009.42
2023-05-01T07:01:16.605Z,1009.37
2023-05-01T07:11:16.692Z,1009.29
2023-05-01T07:21:16.692Z,1009.17
2023-05-01T07:31:16.684Z,1009.10
2023-05-01T07:41:16.768Z,1008.89
2023-05-01T07:51:16.687Z,1008.83
2023-05-01T08:01:16.818Z,1008.81
2023-05-01T08:11:16.699Z,1008.77
2023-05-01T08:21:16.690Z,1008.60
2023-05-01T08:31:16.861Z,1008.62
2023-05-01T08:41:16.847Z,1008.58
2023-05-01T08:51:17.031Z,1008.46
2023-05-01T09:01:17.243Z,1008.43
2023-05-01T09:11:17.111Z,1008.19
2023-05-01T09:21:17.200Z,1008.15
2023-05-01T09:31:17.155Z,1008.11
2023-05-01T09:41:17.197Z,1008.01
2023-05-01T09:51:18.169Z,1007.79
2023-05-01T10:01:17.173Z,1007.91
2023-05-01T10:11:17.219Z,1007.83
2023-05-01T10:21:17.287Z,1007.83
2023-05-01T10:31:17.238Z,1007.62
2023-05-01T10:41:17.218Z,1007.52
2023-05-01T10:51:17.157Z,1007.35
2023-05-01T11:01:17.335Z,1007.30
2023-05-01T11:11:17.349Z,1007.21
2023-05-01T11:21:17.157Z,1006.94
2023-05-01T11:31:17.344Z,1006.89
2023-05-01T11:41:19.264Z,1006.83
2023-05-01T11:51:17.124Z,1006.84
2023-05-01T12:01:17.129Z,1006.67
2023-05-01T12:11:17.219Z,1006.47
2023-05-01T12:21:18.162Z,1006.37
2023-05-01T12:31:17.209Z,1006.37
2023-05-01T12:41:17.125Z,1006.31
2023-05-01T12:51:17.325Z,1006.34
2023-05-01T13:01:17.196Z,1006.01
2023-05-01T13:11:17.227Z,1005.96
2023-05-01T13:21:17.298Z,1005.83
2023-05-01T13:31:17.600Z,1005.79
2023-05-01T13:41:17.560Z,1005.81
2023-05-01T13:51:17.629Z,1005.58
2023-05-01T14:01:17.570Z,1005.64
2023-05-01T14:11:17.779Z,1005.56
2023-05-01T14:21:17.645Z,1005.40
2023-05-01T14:31:17.693Z,1005.36
2023-05-01T14:41:17.720Z,1005.35
2023-05-01T14:51:17.676Z,1005.39
2023-05-01T15:01:17.897Z,1005.37
2023-05-01T15:11:17.580Z,1005.28
2023-05-01T15:21:17.781Z,1005.34
2023-05-01T15:31:17.724Z,1005.36
2023-05-01T15:41:19.199Z,1005.24
2023-05-01T15:51:18.038Z,1005.23
2023-05-01T16:01:18.110Z,1005.25
2023-05-01T16:11:17.998Z,1005.26
2023-05-01T16:21:19.752Z,1005.08
2023-05-01T16:31:27.070Z,1005.06
2023-05-01T16:41:17.992Z,1005.16
2023-05-01T16:51:17.905Z,1005.27
2023-05-01T17:01:18.067Z,1005.23
2023-05-01T17:11:17.988Z,1005.15
2023-05-01T17:21:18.011Z,1005.21
2023-05-01T17:31:20.431Z,1005.36
2023-05-01T17:41:18.083Z,1005.49
2023-05-01T17:51:18.011Z,1005.45
2023-05-01T18:01:18.031Z,1005.49
2023-05-01T18:11:18.015Z,1005.51
2023-05-01T18:21:18.000Z,1005.65
2023-05-01T18:31:17.939Z,1005.82
2023-05-01T18:41:17.955Z,1005.84
2023-05-01T18:51:18.162Z,1006.14
2023-05-01T19:01:17.967Z,1006.12
2023-05-01T19:11:18.256Z,1006.32
2023-05-01T19:21:18.298Z,1006.37
